createdAt,value
2018-08-24T00:01:09.783Z,18.00
2018-08-24T00:03:38.555Z,18.00
2018-08-24T00:06:07.640Z,18.00
2018-08-24T00:08:36.756Z,18.10
2018-08-24T00:11:06.122Z,18.00
2018-08-24T00:13:34.902Z,18.00
2018-08-24T00:16:03.698Z,18.10
2018-08-24T00:18:32.852Z,18.00
2018-08-24T00:21:02.562Z,18.00
2018-08-24T00:23:31.575Z,18.00
2018-08-24T00:26:01.647Z,18.00
2018-08-24T00:28:31.009Z,18.00
2018-08-24T00:30:59.774Z,17.90
2018-08-24T00:33:28.538Z,17.90
2018-08-24T00:35:57.682Z,17.90
2018-08-24T00:38:26.799Z,17.80
2018-08-24T00:40:57.178Z,17.90
2018-08-24T00:43:27.280Z,17.80
2018-08-24T00:45:56.634Z,17.90
2018-08-24T00:48:25.749Z,17.90
2018-08-24T00:50:54.833Z,17.90
2018-08-24T00:53:24.170Z,18.00
2018-08-24T00:55:52.963Z,18.00
2018-08-24T00:58:22.359Z,18.10
2018-08-24T01:00:55.324Z,18.10
2018-08-24T01:03:24.679Z,18.10
2018-08-24T01:05:53.462Z,18.10
2018-08-24T01:08:22.618Z,18.10
2018-08-24T01:10:51.616Z,18.20
2018-08-24T01:13:20.390Z,18.10
2018-08-24T01:15:53.320Z,18.10
2018-08-24T01:18:24.374Z,18.20
2018-08-24T01:20:54.846Z,18.10
2018-08-24T01:23:25.900Z,18.10
2018-08-24T01:25:55.022Z,18.10
2018-08-24T01:28:24.434Z,18.20
2018-08-24T01:30:53.274Z,18.20
2018-08-24T01:33:22.486Z,18.20
2018-08-24T01:35:51.537Z,18.20
2018-08-24T01:38:20.622Z,18.10
2018-08-24T01:40:49.983Z,18.10
2018-08-24T01:43:19.167Z,18.10
2018-08-24T01:45:47.926Z,18.10
2018-08-24T01:48:16.715Z,18.10
2018-08-24T01:50:45.824Z,18.00
2018-08-24T01:53:14.616Z,18.00
2018-08-24T01:55:43.430Z,18.00
2018-08-24T01:58:12.546Z,18.00
2018-08-24T02:00:41.797Z,17.90
2018-08-24T02:03:10.867Z,17.90
2018-08-24T02:05:39.662Z,17.90
2018-08-24T02:08:09.290Z,17.90
2018-08-24T02:10:38.451Z,17.90
2018-08-24T02:13:12.879Z,17.90
2018-08-24T02:15:45.266Z,17.90
2018-08-24T02:18:19.932Z,17.90
2018-08-24T02:20:54.097Z,17.90
2018-08-24T02:23:23.205Z,17.90
2018-08-24T02:25:52.062Z,17.80
2018-08-24T02:28:20.858Z,17.80
2018-08-24T02:30:49.686Z,17.70
2018-08-24T02:33:18.727Z,17.70
2018-08-24T02:35:47.930Z,17.70
2018-08-24T02:38:17.848Z,17.70
2018-08-24T02:40:47.282Z,17.70
2018-08-24T02:43:16.335Z,17.60
2018-08-24T02:45:45.430Z,17.70
2018-08-24T02:48:14.539Z,17.70
2018-08-24T02:50:43.300Z,17.60
2018-08-24T02:53:12.076Z,17.70
2018-08-24T02:55:40.862Z,17.60
2018-08-24T02:58:09.974Z,17.60
2018-08-24T03:00:38.758Z,17.60
2018-08-24T03:03:07.561Z,17.60
2018-08-24T03:05:36.987Z,17.50
2018-08-24T03:08:05.885Z,17.50
2018-08-24T03:10:34.711Z,17.60
2018-08-24T03:13:03.470Z,17.60
2018-08-24T03:15:32.531Z,17.60
2018-08-24T03:18:01.628Z,17.60
2018-08-24T03:20:30.990Z,17.60
2018-08-24T03:22:59.750Z,17.60
2018-08-24T03:25:29.543Z,17.60
2018-08-24T03:27:58.644Z,17.60
2018-08-24T03:30:27.417Z,17.60
2018-08-24T03:32:56.790Z,17.60
2018-08-24T03:35:25.593Z,17.60
2018-08-24T03:37:54.744Z,17.60
2018-08-24T03:40:23.580Z,17.60
2018-08-24T03:42:52.687Z,17.70
2018-08-24T03:45:21.495Z,17.60
2018-08-24T03:47:50.888Z,17.60
2018-08-24T03:50:19.675Z,17.60
2018-08-24T03:52:48.461Z,17.60
2018-08-24T03:55:17.542Z,17.60
2018-08-24T03:57:46.395Z,17.50
2018-08-24T04:00:16.864Z,17.60
2018-08-24T04:02:47.314Z,17.60
2018-08-24T04:05:16.795Z,17.60
2018-08-24T04:07:45.859Z,17.60
2018-08-24T04:10:15.297Z,17.60
2018-08-24T04:12:44.382Z,17.60
2018-08-24T04:15:13.690Z,17.60
2018-08-24T04:17:44.846Z,17.70
2018-08-24T04:20:15.362Z,17.70
2018-08-24T04:22:44.530Z,17.70
2018-08-24T04:25:13.959Z,17.80
2018-08-24T04:27:43.668Z,17.80
2018-08-24T04:30:12.762Z,17.80
2018-08-24T04:32:42.122Z,17.90
2018-08-24T04:35:11.803Z,18.00
2018-08-24T04:37:41.674Z,18.00
2018-08-24T04:40:10.844Z,18.10
2018-08-24T04:42:39.922Z,18.10
2018-08-24T04:45:09.384Z,18.10
2018-08-24T04:47:38.970Z,18.10
2018-08-24T04:50:08.462Z,18.20
2018-08-24T04:52:37.581Z,18.20
2018-08-24T04:55:07.320Z,18.20
2018-08-24T04:57:36.439Z,18.20
2018-08-24T05:00:06.651Z,18.20
2018-08-24T05:02:35.501Z,18.20
2018-08-24T05:05:04.314Z,18.20
2018-08-24T05:07:33.715Z,18.20
2018-08-24T05:10:03.495Z,18.20
2018-08-24T05:12:33.096Z,18.30
2018-08-24T05:15:02.462Z,18.30
2018-08-24T05:17:31.558Z,18.30
2018-08-24T05:20:00.949Z,18.30
2018-08-24T05:22:30.354Z,18.40
2018-08-24T05:24:59.803Z,18.50
2018-08-24T05:27:28.899Z,18.50
2018-08-24T05:29:57.702Z,18.60
2018-08-24T05:32:27.145Z,18.80
2018-08-24T05:34:56.788Z,18.90
2018-08-24T05:37:26.390Z,19.00
2018-08-24T05:39:56.110Z,19.00
2018-08-24T05:42:25.166Z,19.10
2018-08-24T05:44:54.610Z,19.20
2018-08-24T05:47:23.708Z,19.30
2018-08-24T05:49:52.795Z,19.30
2018-08-24T05:52:21.878Z,19.50
2018-08-24T05:54:51.146Z,19.60
2018-08-24T05:57:20.578Z,19.60
2018-08-24T05:59:49.454Z,19.70
2018-08-24T06:02:19.214Z,19.60
2018-08-24T06:04:48.320Z,19.60
2018-08-24T06:07:17.443Z,19.70
2018-08-24T06:09:46.794Z,19.60
2018-08-24T06:12:15.599Z,19.60
2018-08-24T06:14:45.149Z,19.60
2018-08-24T06:17:19.607Z,19.70
2018-08-24T06:19:48.719Z,19.70
2018-08-24T06:22:17.883Z,19.70
2018-08-24T06:24:46.698Z,19.70
2018-08-24T06:27:15.736Z,19.80
2018-08-24T06:29:44.962Z,19.80
2018-08-24T06:32:14.006Z,19.90
2018-08-24T06:34:42.819Z,19.90
2018-08-24T06:37:12.235Z,20.00
2018-08-24T06:39:41.540Z,20.00
2018-08-24T06:42:11.248Z,20.00
2018-08-24T06:44:40.584Z,20.10
2018-08-24T06:47:10.077Z,20.10
2018-08-24T06:49:39.561Z,20.20
2018-08-24T06:52:08.902Z,20.20
2018-08-24T06:54:37.998Z,20.30
2018-08-24T06:57:06.787Z,20.40
2018-08-24T06:59:35.961Z,20.40
2018-08-24T07:02:05.444Z,20.40
2018-08-24T07:04:34.948Z,20.30
2018-08-24T07:07:04.147Z,20.40
2018-08-24T07:09:33.526Z,20.30
2018-08-24T07:12:02.357Z,20.30
2018-08-24T07:14:31.526Z,20.30
2018-08-24T07:17:01.999Z,20.40
2018-08-24T07:19:31.601Z,20.60
2018-08-24T07:22:00.876Z,20.80
2018-08-24T07:24:29.724Z,20.80
2018-08-24T07:26:59.394Z,20.90
2018-08-24T07:29:28.647Z,20.90
2018-08-24T07:31:58.006Z,20.80
2018-08-24T07:34:27.911Z,20.90
2018-08-24T07:36:56.751Z,21.00
2018-08-24T07:39:26.104Z,21.10
2018-08-24T07:41:55.354Z,21.10
2018-08-24T07:44:24.967Z,21.20
2018-08-24T07:46:55.304Z,21.30
2018-08-24T07:49:24.793Z,21.30
2018-08-24T07:51:53.562Z,21.30
2018-08-24T07:54:23.187Z,21.40
2018-08-24T07:56:52.808Z,21.50
2018-08-24T07:59:21.579Z,21.40
2018-08-24T08:01:50.926Z,21.10
2018-08-24T08:04:20.075Z,21.00
2018-08-24T08:06:48.966Z,21.10
2018-08-24T08:09:17.766Z,21.30
2018-08-24T08:11:46.546Z,21.40
2018-08-24T08:14:15.562Z,21.40
2018-08-24T08:16:44.842Z,21.50
2018-08-24T08:19:14.039Z,21.60
2018-08-24T08:21:43.164Z,21.70
2018-08-24T08:24:11.967Z,22.00
2018-08-24T08:26:40.747Z,22.00
2018-08-24T08:29:13.974Z,21.90
2018-08-24T08:31:43.351Z,21.90
2018-08-24T08:34:12.457Z,21.70
2018-08-24T08:36:41.573Z,21.80
2018-08-24T08:39:12.482Z,21.80
2018-08-24T08:41:42.226Z,21.40
2018-08-24T08:44:12.437Z,21.40
2018-08-24T08:46:41.778Z,21.60
2018-08-24T08:49:11.546Z,21.50
2018-08-24T08:51:41.175Z,21.80
2018-08-24T08:54:10.225Z,22.10
2018-08-24T08:56:39.594Z,22.10
2018-08-24T08:59:08.382Z,22.50
2018-08-24T09:01:37.154Z,22.60
2018-08-24T09:04:06.275Z,22.80
2018-08-24T09:06:35.731Z,23.00
2018-08-24T09:09:06.919Z,22.90
2018-08-24T09:11:36.581Z,23.30
2018-08-24T09:14:06.084Z,23.10
2018-08-24T09:16:35.186Z,23.20
2018-08-24T09:19:09.448Z,23.00
2018-08-24T09:21:44.286Z,23.10
2018-08-24T09:24:18.162Z,23.60
2018-08-24T09:26:52.390Z,24.20
2018-08-24T09:29:25.954Z,23.80
2018-08-24T09:31:56.210Z,24.00
2018-08-24T09:34:25.539Z,24.00
2018-08-24T09:36:55.175Z,24.30
2018-08-24T09:39:28.810Z,24.10
2018-08-24T09:42:00.458Z,24.10
2018-08-24T09:44:29.586Z,23.90
2018-08-24T09:47:03.706Z,23.80
2018-08-24T09:49:38.347Z,23.90
2018-08-24T09:52:12.842Z,24.10
2018-08-24T09:54:41.939Z,24.20
2018-08-24T09:57:11.322Z,24.00
2018-08-24T09:59:40.438Z,24.10
2018-08-24T10:02:14.482Z,24.00
2018-08-24T10:04:48.902Z,24.00
2018-08-24T10:08:24.467Z,24.60
2018-08-24T10:10:53.826Z,25.10
2018-08-24T10:13:23.515Z,24.80
2018-08-24T10:15:52.667Z,24.60
2018-08-24T10:18:21.856Z,24.00
2018-08-24T10:20:50.898Z,23.90
2018-08-24T10:23:20.018Z,24.40
2018-08-24T10:25:49.110Z,24.70
2018-08-24T10:28:18.674Z,24.70
2018-08-24T10:30:48.223Z,24.80
2018-08-24T10:33:17.005Z,24.50
2018-08-24T10:35:46.439Z,24.30
2018-08-24T10:38:15.490Z,24.30
2018-08-24T10:40:44.303Z,24.70
2018-08-24T10:43:13.423Z,25.10
2018-08-24T10:45:42.887Z,24.90
2018-08-24T10:48:12.411Z,24.80
2018-08-24T10:50:41.190Z,24.50
2018-08-24T10:53:10.305Z,24.30
2018-08-24T10:55:39.113Z,23.80
2018-08-24T10:58:08.247Z,23.40
2018-08-24T11:00:37.334Z,23.30
2018-08-24T11:03:06.068Z,23.60
2018-08-24T11:05:35.423Z,24.10
2018-08-24T11:08:04.513Z,24.60
2018-08-24T11:10:33.614Z,24.50
2018-08-24T11:13:02.706Z,24.30
2018-08-24T11:15:31.848Z,24.10
2018-08-24T11:18:11.683Z,24.50
2018-08-24T11:20:42.282Z,23.90
2018-08-24T11:23:11.951Z,23.40
2018-08-24T11:25:41.331Z,23.40
2018-08-24T11:28:10.654Z,23.30
2018-08-24T11:30:39.871Z,23.50
2018-08-24T11:33:09.839Z,23.60
2018-08-24T11:35:39.179Z,23.40
2018-08-24T11:38:08.018Z,23.30
2018-08-24T11:40:37.411Z,23.10
2018-08-24T11:43:07.146Z,22.80
2018-08-24T11:45:36.274Z,22.50
2018-08-24T11:48:05.836Z,22.20
2018-08-24T11:50:34.987Z,22.10
2018-08-24T11:53:03.775Z,22.10
2018-08-24T11:55:32.895Z,22.10
2018-08-24T11:58:02.017Z,22.00
2018-08-24T12:00:33.356Z,21.80
2018-08-24T12:03:03.484Z,21.70
2018-08-24T12:05:34.010Z,21.50
2018-08-24T12:08:06.275Z,21.50
2018-08-24T12:10:35.818Z,21.40
2018-08-24T12:13:04.954Z,21.50
2018-08-24T12:15:33.734Z,21.30
2018-08-24T12:18:03.206Z,21.30
2018-08-24T12:20:32.321Z,21.20
2018-08-24T12:23:01.755Z,21.20
2018-08-24T12:25:30.527Z,21.10
2018-08-24T12:28:00.195Z,21.20
2018-08-24T12:30:29.319Z,21.10
2018-08-24T12:32:58.403Z,21.20
2018-08-24T12:35:27.747Z,21.20
2018-08-24T12:37:56.786Z,21.20
2018-08-24T12:40:26.311Z,21.30
2018-08-24T12:42:55.386Z,21.20
2018-08-24T12:45:24.605Z,21.10
2018-08-24T12:47:53.716Z,21.00
2018-08-24T12:50:22.530Z,20.90
2018-08-24T12:52:51.914Z,20.60
2018-08-24T12:55:21.254Z,20.40
2018-08-24T12:57:50.662Z,20.10
2018-08-24T13:00:20.438Z,19.90
2018-08-24T13:02:49.494Z,19.80
2018-08-24T13:05:18.602Z,19.80
2018-08-24T13:07:47.920Z,19.60
2018-08-24T13:10:17.607Z,19.50
2018-08-24T13:12:46.707Z,19.50
2018-08-24T13:15:16.447Z,19.50
2018-08-24T13:17:46.247Z,19.60
2018-08-24T13:20:15.075Z,19.80
2018-08-24T13:22:44.102Z,20.20
2018-08-24T13:25:13.515Z,20.50
2018-08-24T13:27:42.559Z,20.50
2018-08-24T13:30:12.029Z,20.40
2018-08-24T13:32:41.722Z,20.40
2018-08-24T13:35:10.810Z,20.40
2018-08-24T13:37:39.590Z,20.60
2018-08-24T13:40:08.961Z,20.90
2018-08-24T13:42:38.607Z,21.30
2018-08-24T13:45:08.130Z,21.30
2018-08-24T13:47:37.532Z,21.50
2018-08-24T13:50:07.214Z,21.70
2018-08-24T13:52:36.043Z,22.30
2018-08-24T13:55:05.357Z,22.80
2018-08-24T13:57:34.997Z,23.40
2018-08-24T14:00:04.734Z,23.30
2018-08-24T14:02:34.627Z,22.80
2018-08-24T14:05:04.061Z,22.80
2018-08-24T14:07:33.968Z,22.80
2018-08-24T14:10:03.055Z,22.70
2018-08-24T14:12:32.723Z,22.60
2018-08-24T14:15:02.726Z,23.00
2018-08-24T14:17:32.390Z,23.60
2018-08-24T14:20:02.282Z,23.90
2018-08-24T14:22:31.390Z,24.00
2018-08-24T14:25:01.008Z,23.80
2018-08-24T14:27:30.212Z,24.20
2018-08-24T14:29:59.566Z,23.30
2018-08-24T14:32:28.978Z,23.20
2018-08-24T14:34:58.561Z,22.60
2018-08-24T14:37:28.944Z,22.60
2018-08-24T14:39:58.643Z,22.70
2018-08-24T14:42:28.050Z,22.60
2018-08-24T14:44:57.864Z,22.40
2018-08-24T14:47:27.203Z,22.70
2018-08-24T14:49:56.247Z,22.80
2018-08-24T14:52:25.634Z,22.10
2018-08-24T14:54:55.011Z,21.80
2018-08-24T14:57:24.588Z,21.50
2018-08-24T14:59:54.117Z,21.50
2018-08-24T15:02:23.514Z,21.30
2018-08-24T15:04:52.638Z,21.20
2018-08-24T15:07:21.694Z,20.90
2018-08-24T15:09:51.348Z,20.80
2018-08-24T15:12:20.526Z,20.70
2018-08-24T15:14:50.202Z,20.60
2018-08-24T15:17:19.882Z,20.60
2018-08-24T15:19:49.224Z,20.60
2018-08-24T15:22:18.404Z,20.50
2018-08-24T15:24:47.979Z,20.30
2018-08-24T15:27:17.386Z,20.30
2018-08-24T15:29:46.817Z,20.20
2018-08-24T15:32:16.378Z,20.20
2018-08-24T15:34:46.103Z,20.20
2018-08-24T15:37:15.570Z,20.20
2018-08-24T15:39:45.499Z,20.20
2018-08-24T15:42:14.590Z,20.20
2018-08-24T15:44:44.431Z,20.10
2018-08-24T15:47:13.787Z,20.20
2018-08-24T15:49:42.619Z,20.10
2018-08-24T15:52:11.957Z,20.00
2018-08-24T15:54:41.397Z,20.00
2018-08-24T15:57:11.071Z,20.00
2018-08-24T15:59:40.225Z,20.00
2018-08-24T16:02:09.822Z,20.00
2018-08-24T16:04:38.614Z,20.00
2018-08-24T16:07:07.678Z,20.00
2018-08-24T16:09:36.490Z,20.00
2018-08-24T16:12:05.723Z,20.00
2018-08-24T16:14:35.264Z,20.00
2018-08-24T16:17:05.106Z,20.00
2018-08-24T16:19:34.711Z,19.90
2018-08-24T16:22:03.795Z,20.00
2018-08-24T16:24:32.662Z,19.90
2018-08-24T16:27:01.452Z,19.90
2018-08-24T16:29:30.686Z,19.80
2018-08-24T16:32:00.298Z,19.80
2018-08-24T16:34:29.638Z,19.70
2018-08-24T16:36:58.819Z,19.70
2018-08-24T16:39:27.985Z,19.70
2018-08-24T16:41:57.184Z,19.60
2018-08-24T16:44:26.023Z,19.60
2018-08-24T16:46:55.663Z,19.60
2018-08-24T16:49:25.479Z,19.60
2018-08-24T16:51:54.874Z,19.60
2018-08-24T16:54:24.290Z,19.50
2018-08-24T16:56:53.699Z,19.50
2018-08-24T16:59:23.468Z,19.50
2018-08-24T17:01:52.255Z,19.50
2018-08-24T17:04:21.995Z,19.40
2018-08-24T17:06:51.407Z,19.50
2018-08-24T17:09:20.759Z,19.50
2018-08-24T17:11:50.454Z,19.50
2018-08-24T17:14:19.811Z,19.50
2018-08-24T17:16:48.611Z,19.50
2018-08-24T17:19:17.899Z,19.40
2018-08-24T17:21:47.812Z,19.40
2018-08-24T17:24:17.060Z,19.40
2018-08-24T17:26:46.311Z,19.40
2018-08-24T17:29:15.677Z,19.40
2018-08-24T17:31:44.482Z,19.40
2018-08-24T17:34:14.163Z,19.40
2018-08-24T17:36:43.604Z,19.40
2018-08-24T17:39:13.175Z,19.30
2018-08-24T17:41:42.614Z,19.30
2018-08-24T17:44:11.813Z,19.30
2018-08-24T17:46:41.694Z,19.30
2018-08-24T17:49:10.821Z,19.20
2018-08-24T17:51:40.525Z,19.10
2018-08-24T17:54:09.617Z,19.10
2018-08-24T17:56:38.691Z,19.00
2018-08-24T17:59:08.120Z,19.00
2018-08-24T18:01:37.201Z,19.00
2018-08-24T18:04:06.587Z,18.90
2018-08-24T18:06:36.012Z,18.90
2018-08-24T18:09:08.470Z,18.80
2018-08-24T18:11:38.299Z,18.80
2018-08-24T18:14:07.567Z,18.70
2018-08-24T18:16:37.005Z,18.70
2018-08-24T18:19:06.615Z,18.70
2018-08-24T18:21:37.518Z,18.60
2018-08-24T18:24:07.512Z,18.70
2018-08-24T18:26:36.968Z,18.60
2018-08-24T18:29:06.576Z,18.60
2018-08-24T18:31:36.259Z,18.60
2018-08-24T18:34:05.772Z,18.60
2018-08-24T18:36:35.602Z,18.60
2018-08-24T18:39:07.827Z,18.70
2018-08-24T18:41:37.094Z,18.70
2018-08-24T18:44:06.836Z,18.70
2018-08-24T18:46:36.225Z,18.70
2018-08-24T18:49:05.876Z,18.80
2018-08-24T18:51:35.051Z,18.80
2018-08-24T18:54:04.758Z,18.90
2018-08-24T18:56:34.832Z,18.90
2018-08-24T18:59:04.487Z,18.90
2018-08-24T19:01:33.568Z,18.80
2018-08-24T19:04:03.376Z,18.80
2018-08-24T19:06:32.454Z,18.80
2018-08-24T19:09:02.247Z,18.80
2018-08-24T19:11:36.562Z,18.80
2018-08-24T19:14:05.999Z,18.80
2018-08-24T19:16:35.689Z,18.70
2018-08-24T19:19:10.254Z,18.60
2018-08-24T19:21:47.764Z,18.60
2018-08-24T19:24:17.080Z,18.60
2018-08-24T19:26:46.844Z,18.50
2018-08-24T19:29:21.354Z,18.50
2018-08-24T19:31:50.746Z,18.40
2018-08-24T19:34:19.874Z,18.40
2018-08-24T19:36:48.942Z,18.40
2018-08-24T19:39:18.348Z,18.30
2018-08-24T19:41:52.848Z,18.30
2018-08-24T19:44:23.019Z,18.30
2018-08-24T19:46:52.379Z,18.30
2018-08-24T19:49:22.382Z,18.20
2018-08-24T19:51:51.523Z,18.20
2018-08-24T19:54:20.942Z,18.20
2018-08-24T19:56:50.619Z,18.20
2018-08-24T19:59:19.846Z,18.10
2018-08-24T20:01:49.435Z,18.10
2018-08-24T20:04:19.341Z,18.00
2018-08-24T20:06:53.555Z,17.90
2018-08-24T20:09:28.104Z,17.90
2018-08-24T20:11:57.439Z,17.90
2018-08-24T20:14:32.124Z,17.90
2018-08-24T20:17:06.726Z,17.80
2018-08-24T20:19:36.518Z,17.80
2018-08-24T20:22:07.607Z,17.80
2018-08-24T20:24:38.505Z,17.70
2018-08-24T20:27:07.606Z,17.70
2018-08-24T20:29:36.814Z,17.60
2018-08-24T20:32:05.986Z,17.60
2018-08-24T20:34:35.362Z,17.60
2018-08-24T20:37:05.411Z,17.60
2018-08-24T20:39:35.555Z,17.50
2018-08-24T20:42:04.727Z,17.40
2018-08-24T20:44:34.050Z,17.40
2018-08-24T20:47:03.739Z,17.40
2018-08-24T20:49:33.787Z,17.30
2018-08-24T20:52:03.487Z,17.20
2018-08-24T20:54:33.434Z,17.20
2018-08-24T20:57:02.674Z,17.10
2018-08-24T20:59:32.243Z,17.10
2018-08-24T21:02:02.090Z,17.00
2018-08-24T21:04:31.779Z,16.90
2018-08-24T21:07:01.189Z,16.90
2018-08-24T21:09:30.779Z,16.90
2018-08-24T21:12:01.090Z,16.90
2018-08-24T21:14:31.504Z,16.90
2018-08-24T21:17:00.971Z,16.90
2018-08-24T21:19:30.744Z,16.90
2018-08-24T21:22:01.005Z,16.90
2018-08-24T21:24:30.643Z,17.00
2018-08-24T21:27:00.414Z,17.00
2018-08-24T21:29:29.986Z,17.00
2018-08-24T21:31:59.962Z,17.00
2018-08-24T21:34:32.669Z,16.90
2018-08-24T21:37:01.769Z,16.90
2018-08-24T21:39:31.946Z,16.90
2018-08-24T21:42:01.577Z,16.90
2018-08-24T21:44:31.281Z,16.70
2018-08-24T21:47:01.111Z,16.70
2018-08-24T21:49:30.986Z,16.70
2018-08-24T21:52:00.827Z,16.60
2018-08-24T21:54:30.266Z,16.60
2018-08-24T21:57:00.158Z,16.50
2018-08-24T21:59:29.718Z,16.40
2018-08-24T22:01:59.262Z,16.40
2018-08-24T22:04:29.067Z,16.40
2018-08-24T22:06:58.743Z,16.30
2018-08-24T22:09:28.648Z,16.30
2018-08-24T22:11:58.331Z,16.20
2018-08-24T22:14:28.392Z,16.20
2018-08-24T22:16:58.421Z,16.20
2018-08-24T22:19:29.045Z,16.20
2018-08-24T22:21:59.126Z,16.20
2018-08-24T22:24:29.108Z,16.20
2018-08-24T22:26:58.720Z,16.10
2018-08-24T22:29:27.834Z,16.10
2018-08-24T22:31:57.766Z,16.10
2018-08-24T22:34:27.403Z,16.00
2018-08-24T22:36:56.730Z,16.00
2018-08-24T22:39:26.595Z,16.00
2018-08-24T22:41:55.995Z,16.00
2018-08-24T22:44:25.765Z,15.90
2018-08-24T22:46:55.694Z,16.00
2018-08-24T22:49:25.422Z,15.90
2018-08-24T22:51:55.214Z,15.90
2018-08-24T22:54:25.139Z,15.90
2018-08-24T22:56:54.428Z,15.90
2018-08-24T22:59:24.010Z,15.90
2018-08-24T23:01:53.436Z,15.90
2018-08-24T23:04:22.529Z,15.90
2018-08-24T23:06:52.322Z,15.90
2018-08-24T23:09:21.981Z,15.80
2018-08-24T23:11:51.143Z,15.90
2018-08-24T23:14:20.226Z,15.80
2018-08-24T23:16:49.326Z,15.80
2018-08-24T23:19:18.711Z,15.90
2018-08-24T23:21:47.822Z,15.80
2018-08-24T23:24:16.910Z,15.80
2018-08-24T23:26:45.960Z,15.80
2018-08-24T23:29:15.022Z,15.80
2018-08-24T23:31:44.473Z,15.80
2018-08-24T23:34:13.303Z,15.80
2018-08-24T23:36:42.594Z,15.80
2018-08-24T23:39:12.962Z,15.80
2018-08-24T23:41:42.042Z,15.80
2018-08-24T23:44:11.289Z,15.80
2018-08-24T23:46:40.717Z,15.80
2018-08-24T23:49:10.635Z,15.80
2018-08-24T23:51:40.023Z,15.70
2018-08-24T23:54:10.081Z,15.70
2018-08-24T23:56:38.914Z,15.70
2018-08-24T23:59:08.071Z,15.70
